createdAt,value
2023-05-01T00:09:12.145Z,1.20
2023-05-01T00:31:14.824Z,1.20
2023-05-01T00:33:41.174Z,1.50
2023-05-01T00:38:34.792Z,1.60
2023-05-01T00:48:20.894Z,1.40
2023-05-01T00:50:47.155Z,1.50
2023-05-01T00:55:41.794Z,1.40
2023-05-01T00:58:08.166Z,1.50
2023-05-01T01:03:01.009Z,1.30
2023-05-01T01:05:27.744Z,1.10
2023-05-01T01:08:30.629Z,1.00
2023-05-01T01:11:21.279Z,0.90
2023-05-01T01:14:13.851Z,1.00
2023-05-01T01:19:25.179Z,0.80
2023-05-01T01:21:54.202Z,0.70
2023-05-01T01:31:11.388Z,0.60
2023-05-01T01:38:07.265Z,0.60
2023-05-01T01:40:36.903Z,1.30
2023-05-01T01:43:06.966Z,0.70
2023-05-01T01:45:43.172Z,0.70
2023-05-01T01:48:10.994Z,0.30
2023-05-01T01:53:04.863Z,0.70
2023-05-01T01:55:31.539Z,0.90
2023-05-01T01:57:57.845Z,0.50
2023-05-01T02:02:51.700Z,0.50
2023-05-01T02:07:46.687Z,0.70
2023-05-01T02:10:15.455Z,0.60
2023-05-01T02:12:45.694Z,0.40
2023-05-01T02:20:06.002Z,0.20
2023-05-01T02:27:35.666Z,0.10
2023-05-01T02:39:50.091Z,0.30
2023-05-01T02:42:16.485Z,0.20
2023-05-01T02:45:03.528Z,0.20
2023-05-01T02:47:31.407Z,-0.10
2023-05-01T02:57:20.156Z,-0.10
2023-05-01T03:02:13.186Z,0.10
2023-05-01T03:09:34.954Z,-0.20
2023-05-01T03:14:28.809Z,0.00
2023-05-01T03:16:55.369Z,0.40
2023-05-01T03:26:41.328Z,-0.10
2023-05-01T04:03:26.866Z,6.70
2023-05-01T04:15:39.364Z,8.60
2023-05-01T04:22:59.834Z,9.30
2023-05-01T04:25:26.978Z,9.40
2023-05-01T04:27:53.199Z,10.00
2023-05-01T04:40:07.249Z,8.70
2023-05-01T04:47:29.724Z,6.20
2023-05-01T04:54:50.583Z,5.80
2023-05-01T04:57:16.762Z,5.70
2023-05-01T05:02:09.750Z,6.20
2023-05-01T05:04:36.416Z,6.30
2023-05-01T05:14:22.268Z,6.30
2023-05-01T05:16:48.458Z,6.10
2023-05-01T05:19:14.804Z,6.60
2023-05-01T05:24:07.623Z,6.90
2023-05-01T05:26:33.840Z,7.00
2023-05-01T05:31:26.566Z,7.70
2023-05-01T05:36:19.505Z,8.30
2023-05-01T05:38:46.931Z,8.70
2023-05-01T05:41:13.173Z,9.20
2023-05-01T05:43:39.600Z,10.10
2023-05-01T05:46:06.237Z,9.90
2023-05-01T05:48:32.474Z,10.50
2023-05-01T05:50:58.815Z,10.60
2023-05-01T05:53:26.125Z,11.40
2023-05-01T05:55:52.736Z,11.40
2023-05-01T05:58:22.937Z,11.60
2023-05-01T06:00:49.393Z,12.20
2023-05-01T06:03:16.369Z,12.10
2023-05-01T06:05:43.157Z,12.40
2023-05-01T06:08:10.001Z,13.20
2023-05-01T06:10:39.998Z,14.00
2023-05-01T06:13:13.334Z,14.00
2023-05-01T06:15:41.323Z,14.40
2023-05-01T06:18:07.891Z,15.50
2023-05-01T06:20:34.269Z,15.70
2023-05-01T06:23:00.434Z,15.30
2023-05-01T06:25:26.646Z,15.50
2023-05-01T06:27:52.873Z,15.70
2023-05-01T06:30:19.343Z,16.50
2023-05-01T06:32:46.181Z,16.00
2023-05-01T06:35:12.688Z,16.10
2023-05-01T06:37:38.857Z,16.80
2023-05-01T06:40:09.047Z,17.20
2023-05-01T06:42:36.259Z,16.70
2023-05-01T06:45:03.234Z,17.50
2023-05-01T06:47:29.699Z,17.80
2023-05-01T06:49:56.223Z,17.00
2023-05-01T06:52:22.641Z,17.90
2023-05-01T06:54:48.911Z,17.30
2023-05-01T06:57:15.121Z,18.60
2023-05-01T06:59:42.085Z,19.10
2023-05-01T07:02:08.358Z,19.80
2023-05-01T07:04:34.589Z,20.50
2023-05-01T07:07:02.806Z,20.30
2023-05-01T07:09:29.039Z,20.70
2023-05-01T07:11:56.420Z,20.80
2023-05-01T07:14:23.256Z,20.20
2023-05-01T07:16:49.653Z,19.40
2023-05-01T07:19:15.932Z,18.10
2023-05-01T07:21:42.433Z,17.50
2023-05-01T07:24:11.893Z,18.30
2023-05-01T07:26:38.125Z,20.00
2023-05-01T07:29:04.453Z,20.70
2023-05-01T07:31:30.653Z,20.00
2023-05-01T07:33:56.992Z,19.90
2023-05-01T07:36:23.321Z,18.90
2023-05-01T07:38:49.887Z,19.60
2023-05-01T07:41:16.425Z,21.30
2023-05-01T07:43:42.574Z,21.60
2023-05-01T07:46:10.699Z,19.70
2023-05-01T07:48:38.839Z,19.60
2023-05-01T07:51:05.752Z,19.20
2023-05-01T07:53:32.463Z,18.30
2023-05-01T07:56:08.234Z,18.30
2023-05-01T07:58:35.504Z,18.90
2023-05-01T08:01:02.132Z,19.20
2023-05-01T08:03:29.597Z,20.10
2023-05-01T08:05:56.635Z,19.90
2023-05-01T08:08:22.923Z,21.10
2023-05-01T08:10:52.407Z,20.80
2023-05-01T08:13:18.825Z,21.10
2023-05-01T08:15:48.378Z,20.40
2023-05-01T08:18:21.095Z,19.60
2023-05-01T08:20:48.162Z,19.70
2023-05-01T08:23:18.252Z,19.50
2023-05-01T08:25:50.479Z,19.00
2023-05-01T08:28:16.943Z,19.80
2023-05-01T08:30:45.848Z,19.20
2023-05-01T08:33:12.167Z,19.40
2023-05-01T08:35:38.407Z,20.20
2023-05-01T08:38:04.561Z,20.40
2023-05-01T08:40:35.803Z,19.90
2023-05-01T08:43:02.154Z,20.40
2023-05-01T08:45:30.415Z,19.80
2023-05-01T08:47:56.882Z,19.90
2023-05-01T08:50:26.229Z,19.10
2023-05-01T08:53:02.887Z,19.80
2023-05-01T08:55:29.669Z,19.50
2023-05-01T08:57:56.316Z,19.30
2023-05-01T09:00:22.966Z,19.70
2023-05-01T09:02:50.110Z,19.60
2023-05-01T09:05:19.629Z,19.40
2023-05-01T09:07:46.100Z,20.60
2023-05-01T09:10:13.513Z,20.80
2023-05-01T09:12:40.336Z,20.60
2023-05-01T09:15:07.258Z,21.20
2023-05-01T09:17:33.666Z,21.30
2023-05-01T09:20:02.001Z,20.30
2023-05-01T09:22:30.312Z,20.20
2023-05-01T09:24:57.214Z,19.80
2023-05-01T09:27:23.618Z,19.50
2023-05-01T09:29:49.890Z,19.60
2023-05-01T09:32:29.425Z,20.20
2023-05-01T09:35:08.702Z,20.80
2023-05-01T09:37:35.193Z,22.00
2023-05-01T09:40:11.415Z,22.10
2023-05-01T09:42:39.177Z,21.50
2023-05-01T09:45:14.586Z,20.80
2023-05-01T09:47:41.938Z,19.70
2023-05-01T09:50:08.743Z,19.70
2023-05-01T09:52:35.056Z,20.20
2023-05-01T09:55:17.700Z,20.00
2023-05-01T09:57:44.899Z,19.90
2023-05-01T10:00:13.843Z,19.80
2023-05-01T10:02:44.415Z,19.70
2023-05-01T10:05:11.119Z,20.20
2023-05-01T10:07:37.970Z,19.60
2023-05-01T10:10:20.824Z,20.20
2023-05-01T10:12:47.934Z,20.40
2023-05-01T10:15:24.517Z,21.20
2023-05-01T10:17:52.712Z,21.30
2023-05-01T10:20:19.153Z,20.40
2023-05-01T10:22:45.976Z,20.30
2023-05-01T10:25:12.300Z,20.90
2023-05-01T10:27:40.375Z,20.50
2023-05-01T10:30:07.265Z,17.70
2023-05-01T10:32:33.659Z,19.80
2023-05-01T10:35:08.970Z,19.40
2023-05-01T10:37:49.036Z,20.00
2023-05-01T10:40:52.238Z,20.70
2023-05-01T10:43:27.965Z,20.70
2023-05-01T10:46:39.905Z,22.00
2023-05-01T10:49:06.493Z,20.20
2023-05-01T10:52:03.879Z,20.50
2023-05-01T10:54:32.477Z,20.90
2023-05-01T10:57:02.625Z,20.50
2023-05-01T11:01:39.492Z,20.70
2023-05-01T11:04:55.084Z,20.90
2023-05-01T11:07:22.520Z,21.50
2023-05-01T11:09:56.989Z,21.30
2023-05-01T11:12:50.356Z,20.80
2023-05-01T11:15:27.447Z,20.70
2023-05-01T11:17:55.223Z,20.20
2023-05-01T11:21:04.074Z,20.20
2023-05-01T11:23:30.575Z,20.50
2023-05-01T11:26:04.110Z,20.40
2023-05-01T11:28:30.490Z,21.10
2023-05-01T11:30:56.722Z,21.20
2023-05-01T11:33:25.136Z,22.80
2023-05-01T11:35:58.981Z,21.00
2023-05-01T11:38:25.254Z,21.00
2023-05-01T11:40:55.619Z,21.50
2023-05-01T11:43:22.900Z,22.00
2023-05-01T11:45:52.299Z,22.30
2023-05-01T11:48:18.746Z,22.00
2023-05-01T11:50:45.629Z,21.10
2023-05-01T11:53:15.378Z,21.70
2023-05-01T11:55:41.639Z,21.90
2023-05-01T11:58:09.116Z,22.10
2023-05-01T12:00:42.093Z,20.00
2023-05-01T12:03:14.987Z,21.50
2023-05-01T12:05:43.204Z,21.90
2023-05-01T12:08:14.158Z,21.60
2023-05-01T12:10:42.007Z,21.70
2023-05-01T12:13:09.269Z,21.20
2023-05-01T12:15:36.736Z,21.60
2023-05-01T12:18:06.771Z,21.60
2023-05-01T12:20:41.268Z,19.40
2023-05-01T12:23:10.405Z,21.00
2023-05-01T12:25:38.671Z,21.30
2023-05-01T12:28:16.201Z,21.00
2023-05-01T12:30:42.812Z,21.10
2023-05-01T12:33:16.174Z,21.20
2023-05-01T12:35:46.007Z,21.00
2023-05-01T12:38:20.089Z,21.20
2023-05-01T12:40:56.953Z,21.10
2023-05-01T12:43:33.749Z,20.80
2023-05-01T12:46:00.183Z,21.00
2023-05-01T12:48:26.616Z,21.30
2023-05-01T12:50:56.337Z,21.00
2023-05-01T12:53:23.882Z,21.10
2023-05-01T12:55:51.787Z,21.30
2023-05-01T12:58:18.237Z,21.60
2023-05-01T13:00:52.135Z,21.60
2023-05-01T13:03:26.191Z,21.70
2023-05-01T13:05:55.715Z,22.00
2023-05-01T13:08:27.087Z,22.20
2023-05-01T13:10:56.555Z,23.10
2023-05-01T13:13:28.044Z,21.10
2023-05-01T13:16:02.210Z,21.50
2023-05-01T13:18:28.582Z,21.80
2023-05-01T13:20:54.862Z,21.80
2023-05-01T13:23:21.309Z,22.30
2023-05-01T13:25:54.967Z,22.20
2023-05-01T13:28:21.269Z,22.10
2023-05-01T13:30:47.507Z,22.40
2023-05-01T13:33:13.793Z,22.70
2023-05-01T13:35:40.029Z,22.50
2023-05-01T13:38:08.579Z,22.30
2023-05-01T13:40:34.760Z,20.40
2023-05-01T13:43:02.636Z,22.10
2023-05-01T13:45:29.121Z,21.80
2023-05-01T13:47:55.986Z,21.90
2023-05-01T13:50:22.388Z,22.00
2023-05-01T13:52:48.572Z,21.80
2023-05-01T13:55:15.270Z,21.80
2023-05-01T13:57:42.542Z,21.60
2023-05-01T14:00:11.086Z,21.70
2023-05-01T14:02:47.753Z,21.30
2023-05-01T14:05:15.045Z,21.40
2023-05-01T14:07:50.184Z,21.60
2023-05-01T14:10:16.382Z,21.80
2023-05-01T14:12:42.619Z,21.60
2023-05-01T14:15:10.876Z,21.50
2023-05-01T14:17:37.165Z,21.30
2023-05-01T14:20:06.917Z,21.20
2023-05-01T14:22:43.734Z,21.10
2023-05-01T14:25:23.683Z,21.00
2023-05-01T14:27:51.518Z,21.60
2023-05-01T14:30:39.066Z,21.30
2023-05-01T14:33:08.997Z,21.40
2023-05-01T14:35:38.469Z,22.10
2023-05-01T14:38:14.203Z,21.90
2023-05-01T14:40:43.574Z,22.10
2023-05-01T14:43:10.467Z,22.40
2023-05-01T14:45:36.740Z,22.40
2023-05-01T14:48:04.111Z,22.30
2023-05-01T14:50:30.724Z,22.10
2023-05-01T14:52:58.181Z,21.60
2023-05-01T14:55:29.069Z,21.70
2023-05-01T14:57:56.469Z,21.80
2023-05-01T15:00:23.250Z,21.70
2023-05-01T15:02:49.988Z,21.40
2023-05-01T15:05:17.029Z,21.70
2023-05-01T15:07:44.419Z,21.70
2023-05-01T15:10:10.918Z,21.90
2023-05-01T15:12:37.503Z,22.00
2023-05-01T15:15:04.313Z,22.20
2023-05-01T15:17:32.384Z,22.20
2023-05-01T15:19:58.926Z,21.90
2023-05-01T15:22:25.100Z,22.00
2023-05-01T15:24:51.438Z,21.90
2023-05-01T15:27:17.826Z,22.00
2023-05-01T15:29:44.050Z,21.50
2023-05-01T15:32:13.830Z,21.20
2023-05-01T15:34:41.943Z,21.20
2023-05-01T15:37:08.144Z,21.20
2023-05-01T15:39:34.312Z,20.90
2023-05-01T15:42:00.603Z,21.10
2023-05-01T15:44:28.004Z,20.90
2023-05-01T15:46:54.369Z,20.80
2023-05-01T15:49:20.741Z,20.50
2023-05-01T15:51:47.055Z,20.00
2023-05-01T15:54:13.284Z,19.90
2023-05-01T15:56:39.574Z,19.70
2023-05-01T15:59:06.357Z,19.60
2023-05-01T16:01:33.367Z,19.90
2023-05-01T16:03:59.771Z,21.30
2023-05-01T16:06:27.935Z,20.00
2023-05-01T16:08:54.283Z,20.10
2023-05-01T16:11:20.723Z,20.20
2023-05-01T16:13:47.891Z,20.00
2023-05-01T16:16:18.757Z,20.00
2023-05-01T16:18:45.536Z,20.00
2023-05-01T16:21:12.556Z,19.90
2023-05-01T16:23:38.984Z,19.70
2023-05-01T16:26:05.608Z,19.60
2023-05-01T16:28:34.890Z,19.60
2023-05-01T16:31:01.136Z,19.60
2023-05-01T16:33:27.423Z,19.50
2023-05-01T16:35:53.596Z,19.40
2023-05-01T16:38:19.865Z,19.30
2023-05-01T16:40:47.366Z,19.20
2023-05-01T16:43:39.786Z,19.30
2023-05-01T16:46:06.131Z,19.00
2023-05-01T16:48:34.786Z,18.80
2023-05-01T16:51:04.885Z,18.70
2023-05-01T16:53:31.721Z,19.30
2023-05-01T16:55:58.260Z,18.50
2023-05-01T16:58:26.147Z,18.50
2023-05-01T17:00:52.650Z,18.30
2023-05-01T17:03:19.004Z,18.10
2023-05-01T17:05:45.322Z,17.90
2023-05-01T17:08:11.735Z,17.70
2023-05-01T17:10:38.108Z,17.60
2023-05-01T17:13:06.452Z,17.50
2023-05-01T17:15:32.830Z,17.40
2023-05-01T17:17:59.130Z,17.30
2023-05-01T17:20:25.429Z,17.30
2023-05-01T17:22:51.730Z,17.10
2023-05-01T17:25:17.936Z,17.00
2023-05-01T17:27:44.201Z,16.90
2023-05-01T17:30:10.901Z,16.80
2023-05-01T17:32:37.865Z,16.70
2023-05-01T17:35:05.468Z,16.60
2023-05-01T17:37:32.865Z,16.50
2023-05-01T17:39:59.290Z,16.40
2023-05-01T17:42:25.752Z,16.20
2023-05-01T17:44:52.400Z,16.00
2023-05-01T17:47:18.707Z,15.90
2023-05-01T17:49:45.205Z,15.70
2023-05-01T17:52:12.072Z,15.50
2023-05-01T17:54:38.456Z,15.40
2023-05-01T17:57:05.054Z,15.40
2023-05-01T17:59:31.373Z,15.20
2023-05-01T18:01:57.809Z,15.10
2023-05-01T18:04:25.042Z,15.00
2023-05-01T18:06:51.887Z,14.90
2023-05-01T18:09:19.307Z,14.80
2023-05-01T18:11:46.512Z,14.70
2023-05-01T18:14:13.243Z,14.60
2023-05-01T18:16:39.573Z,14.40
2023-05-01T18:19:06.091Z,14.50
2023-05-01T18:21:33.126Z,14.10
2023-05-01T18:24:01.772Z,12.10
2023-05-01T18:26:29.329Z,14.00
2023-05-01T18:28:56.048Z,13.90
2023-05-01T18:31:22.957Z,13.90
2023-05-01T18:33:49.995Z,13.90
2023-05-01T18:36:19.608Z,13.80
2023-05-01T18:38:46.306Z,14.50
2023-05-01T18:41:12.716Z,13.80
2023-05-01T18:43:40.799Z,13.80
2023-05-01T18:46:07.202Z,13.70
2023-05-01T18:48:33.618Z,13.90
2023-05-01T18:51:08.533Z,13.70
2023-05-01T18:53:38.708Z,13.60
2023-05-01T18:56:05.750Z,13.70
2023-05-01T18:58:32.178Z,13.70
2023-05-01T19:00:58.434Z,13.60
2023-05-01T19:03:25.005Z,13.60
2023-05-01T19:05:53.676Z,14.10
2023-05-01T19:08:23.172Z,14.00
2023-05-01T19:10:49.589Z,13.40
2023-05-01T19:13:16.604Z,13.30
2023-05-01T19:15:43.171Z,13.30
2023-05-01T19:18:10.136Z,13.20
2023-05-01T19:20:36.476Z,13.00
2023-05-01T19:23:02.896Z,13.00
2023-05-01T19:25:31.719Z,12.90
2023-05-01T19:28:01.548Z,12.70
2023-05-01T19:30:27.912Z,12.70
2023-05-01T19:32:54.297Z,12.70
2023-05-01T19:35:20.526Z,12.60
2023-05-01T19:37:48.783Z,12.90
2023-05-01T19:40:17.213Z,12.40
2023-05-01T19:42:45.007Z,12.50
2023-05-01T19:45:12.066Z,12.30
2023-05-01T19:47:38.748Z,12.30
2023-05-01T19:50:06.032Z,12.10
2023-05-01T19:52:32.414Z,11.90
2023-05-01T19:55:02.946Z,11.80
2023-05-01T19:57:29.538Z,11.80
2023-05-01T19:59:58.192Z,11.60
2023-05-01T20:02:24.964Z,11.60
2023-05-01T20:04:51.455Z,11.50
2023-05-01T20:07:18.626Z,11.50
2023-05-01T20:09:45.548Z,11.40
2023-05-01T20:12:12.053Z,11.40
2023-05-01T20:14:38.254Z,11.40
2023-05-01T20:17:06.506Z,11.30
2023-05-01T20:19:33.040Z,11.30
2023-05-01T20:21:59.376Z,11.30
2023-05-01T20:24:25.763Z,11.30
2023-05-01T20:26:55.130Z,11.40
2023-05-01T20:29:21.485Z,11.40
2023-05-01T20:31:50.676Z,11.90
2023-05-01T20:34:17.225Z,11.30
2023-05-01T20:36:44.224Z,11.30
2023-05-01T20:39:11.160Z,11.30
2023-05-01T20:41:37.463Z,11.20
2023-05-01T20:44:04.790Z,11.30
2023-05-01T20:46:31.291Z,11.30
2023-05-01T20:48:58.415Z,9.40
2023-05-01T20:51:26.676Z,11.60
2023-05-01T20:53:53.139Z,11.40
2023-05-01T20:56:19.537Z,11.40
2023-05-01T20:58:45.908Z,11.40
2023-05-01T21:01:15.063Z,11.40
2023-05-01T21:03:42.459Z,11.40
2023-05-01T21:06:08.779Z,11.40
2023-05-01T21:08:35.102Z,11.30
2023-05-01T21:11:02.027Z,11.30
2023-05-01T21:13:28.321Z,11.10
2023-05-01T21:15:54.594Z,11.10
2023-05-01T21:18:21.114Z,11.10
2023-05-01T21:20:48.082Z,11.00
2023-05-01T21:23:15.055Z,11.00
2023-05-01T21:25:41.580Z,13.80
2023-05-01T21:28:11.902Z,11.10
2023-05-01T21:30:38.334Z,11.20
2023-05-01T21:33:05.848Z,11.20
2023-05-01T21:35:32.281Z,11.20
2023-05-01T21:37:58.621Z,11.10
2023-05-01T21:40:25.049Z,11.20
2023-05-01T21:42:52.578Z,11.20
2023-05-01T21:45:19.104Z,11.20
2023-05-01T21:47:52.540Z,11.20
2023-05-01T21:50:19.424Z,11.10
2023-05-01T21:52:47.527Z,10.90
2023-05-01T21:55:21.230Z,10.90
2023-05-01T21:57:49.155Z,10.70
2023-05-01T22:00:15.611Z,10.80
2023-05-01T22:02:43.038Z,10.80
2023-05-01T22:05:09.926Z,10.70
2023-05-01T22:07:43.058Z,10.70
2023-05-01T22:10:15.182Z,10.60
2023-05-01T22:12:41.525Z,10.60
2023-05-01T22:15:08.895Z,10.50
2023-05-01T22:17:36.043Z,10.50
2023-05-01T22:20:03.772Z,13.40
2023-05-01T22:22:29.995Z,10.60
2023-05-01T22:24:56.286Z,10.70
2023-05-01T22:27:22.478Z,10.70
2023-05-01T22:29:48.781Z,10.60
2023-05-01T22:32:15.025Z,10.60
2023-05-01T22:34:43.961Z,10.60
2023-05-01T22:37:10.409Z,10.60
2023-05-01T22:39:36.673Z,10.50
2023-05-01T22:42:03.244Z,10.00
2023-05-01T22:44:29.732Z,10.50
2023-05-01T22:46:55.961Z,10.50
2023-05-01T22:49:22.689Z,10.60
2023-05-01T22:51:48.883Z,10.60
2023-05-01T22:54:15.272Z,10.70
2023-05-01T22:56:41.577Z,10.70
2023-05-01T22:59:07.805Z,10.60
2023-05-01T23:01:34.060Z,10.90
2023-05-01T23:04:01.521Z,10.90
2023-05-01T23:06:28.643Z,10.90
2023-05-01T23:08:54.970Z,10.80
2023-05-01T23:11:21.426Z,10.80
2023-05-01T23:13:49.092Z,10.80
2023-05-01T23:16:15.651Z,10.70
2023-05-01T23:18:41.964Z,10.50
2023-05-01T23:21:09.780Z,10.40
2023-05-01T23:23:37.344Z,10.40
2023-05-01T23:26:08.638Z,10.30
2023-05-01T23:28:39.307Z,10.20
2023-05-01T23:31:11.055Z,10.20
2023-05-01T23:33:37.320Z,10.20
2023-05-01T23:36:04.043Z,10.10
2023-05-01T23:38:30.279Z,10.00
2023-05-01T23:40:56.517Z,10.00
2023-05-01T23:43:22.936Z,10.00
2023-05-01T23:45:49.391Z,9.90
2023-05-01T23:48:15.647Z,9.80
2023-05-01T23:50:41.936Z,9.70
2023-05-01T23:53:08.146Z,9.70
2023-05-01T23:55:34.815Z,9.60
2023-05-01T23:58:01.378Z,9.50
